Time;durP1;ratioP1;P1;durP2;ratioP2;P2;SDS_P1;SDS_P2;PMS_P1;PMS_P2;Temp;Humidity;BMP_temperature;BMP_pressure;BME280_temperature;BME280_humidity;BME280_pressure;Samples;Min_cycle;Max_cycle;Signal;HPM_P1;HPM_P2
2021/04/17 00:01:10;;;;;;;3.30;2.67;;;;;;;11.90;35.75;100330.00;5060892;28;20481;-66
2021/04/17 00:03:35;;;;;;;6.97;3.20;;;;;;;11.61;35.29;100263.41;5055026;28;20029;-65
2021/04/17 00:06:01;;;;;;;5.57;3.35;;;;;;;11.88;35.59;100332.81;5067244;28;20029;-66
2021/04/17 00:08:27;;;;;;;5.95;3.50;;;;;;;11.81;35.71;100315.47;5053880;28;20036;-65
2021/04/17 00:10:52;;;;;;;4.90;2.80;;;;;;;11.70;35.76;100320.84;5063354;28;20029;-66
2021/04/17 00:13:18;;;;;;;5.95;3.10;;;;;;;11.70;35.75;100305.63;5056703;28;20525;-66
2021/04/17 00:15:44;;;;;;;5.15;3.03;;;;;;;11.91;35.32;100326.34;5063740;28;20036;-66
2021/04/17 00:18:09;;;;;;;5.20;3.03;;;;;;;11.90;35.41;100336.25;5057910;28;20033;-66
2021/04/17 00:20:35;;;;;;;4.47;2.60;;;;;;;11.46;35.65;100260.97;5069603;28;20040;-65
2021/04/17 00:23:00;;;;;;;4.28;3.00;;;;;;;12.04;35.06;100320.91;5060809;28;20041;-64
2021/04/17 00:25:26;;;;;;;7.90;2.80;;;;;;;11.96;34.83;100312.56;5061240;28;20034;-68
2021/04/17 00:27:51;;;;;;;6.47;2.90;;;;;;;11.85;35.32;100333.06;5055116;28;20044;-66
2021/04/17 00:30:17;;;;;;;6.88;2.65;;;;;;;12.03;35.03;100330.78;5066366;28;20123;-66
2021/04/17 00:32:43;;;;;;;5.90;2.70;;;;;;;11.88;35.03;100324.78;5055745;28;20063;-67
2021/04/17 00:35:09;;;;;;;7.15;2.60;;;;;;;11.87;34.88;100324.88;5058886;28;20477;-66
2021/04/17 00:37:34;;;;;;;5.55;2.83;;;;;;;11.93;34.42;100337.81;5062935;28;20044;-65
2021/04/17 00:40:00;;;;;;;5.82;3.05;;;;;;;11.95;34.58;100346.63;5054302;28;20060;-66
2021/04/17 00:42:25;;;;;;;5.57;2.90;;;;;;;11.65;35.42;100331.06;5056542;28;20030;-67
2021/04/17 00:44:51;;;;;;;6.28;3.00;;;;;;;11.52;35.15;100317.75;5062586;28;20024;-66
2021/04/17 00:47:17;;;;;;;5.13;2.58;;;;;;;11.16;35.21;100248.91;5060249;28;20040;-65
2021/04/17 00:49:42;;;;;;;5.18;2.55;;;;;;;11.59;34.96;100327.03;5055389;28;20115;-66
2021/04/17 00:52:08;;;;;;;3.97;2.35;;;;;;;11.46;35.27;100319.94;5066650;28;20074;-67
2021/04/17 00:54:34;;;;;;;5.38;2.63;;;;;;;11.55;34.92;100339.81;5054636;28;20040;-65
2021/04/17 00:56:59;;;;;;;3.63;2.22;;;;;;;11.47;34.84;100321.66;5062221;28;20041;-67
2021/04/17 00:59:25;;;;;;;2.67;2.28;;;;;;;11.45;35.43;100328.97;5061191;28;20032;-67
2021/04/17 01:01:50;;;;;;;8.38;2.85;;;;;;;11.06;35.58;100291.63;5054636;28;20037;-68
2021/04/17 01:04:39;;;;;;;7.43;2.80;;;;;;;11.00;36.02;100331.47;5066124;28;20032;-67
2021/04/17 01:07:35;;;;;;;5.90;2.58;;;;;;;11.40;35.64;100327.59;5058626;28;20523;-66
2021/04/17 01:10:24;;;;;;;8.27;2.65;;;;;;;10.85;35.54;100250.38;5052586;28;20041;-66
2021/04/17 01:12:54;;;;;;;5.25;2.45;;;;;;;11.14;35.66;100328.59;5044524;28;20055;-68
2021/04/17 01:15:22;;;;;;;6.80;2.70;;;;;;;11.31;35.06;100311.22;5058906;28;20119;-66
2021/04/17 01:17:50;;;;;;;5.45;2.58;;;;;;;10.89;34.96;100243.84;5058703;28;20178;-69
2021/04/17 01:20:37;;;;;;;5.63;2.13;;;;;;;11.17;35.19;100284.63;5068709;28;20032;-67
2021/04/17 01:23:03;;;;;;;3.35;1.77;;;;;;;11.49;35.06;100306.31;5059869;28;20037;-66
2021/04/17 01:25:32;;;;;;;4.07;2.78;;;;;;;10.99;34.95;100250.22;5062029;28;20127;-67
2021/04/17 01:27:58;;;;;;;5.55;2.33;;;;;;;11.44;34.83;100312.97;5057770;28;20037;-68
2021/04/17 01:30:24;;;;;;;5.20;2.20;;;;;;;11.37;34.42;100311.75;5069655;28;20126;-67
2021/04/17 01:32:49;;;;;;;4.47;2.38;;;;;;;11.34;34.27;100302.97;5059968;28;20045;-67
2021/04/17 01:35:18;;;;;;;5.75;2.40;;;;;;;11.43;34.21;100328.19;5062200;28;20178;-67
2021/04/17 01:37:53;;;;;;;6.88;2.30;;;;;;;11.49;34.29;100327.75;5061905;28;20389;-67
2021/04/17 01:40:21;;;;;;;4.72;2.10;;;;;;;11.50;33.58;100333.94;5069423;28;20373;-67
2021/04/17 01:42:46;;;;;;;2.88;2.08;;;;;;;11.43;33.82;100322.00;5059246;28;20053;-67
2021/04/17 01:45:17;;;;;;;2.78;1.83;;;;;;;11.43;33.69;100328.19;5062800;28;20041;-65
2021/04/17 01:47:44;;;;;;;4.45;2.22;;;;;;;11.23;33.94;100310.13;5062111;28;20396;-64
2021/04/17 01:50:12;;;;;;;4.20;2.55;;;;;;;11.19;33.33;100306.81;5069544;28;20040;-67
2021/04/17 01:52:39;;;;;;;3.53;2.40;;;;;;;11.34;33.84;100329.78;5057623;28;20045;-66
2021/04/17 01:55:06;;;;;;;4.75;1.83;;;;;;;11.20;33.57;100317.38;5064012;28;20053;-66
2021/04/17 01:57:32;;;;;;;5.25;2.38;;;;;;;11.27;33.83;100330.34;5065339;28;20813;-65
2021/04/17 01:59:58;;;;;;;5.47;2.05;;;;;;;11.27;33.66;100308.91;5055994;28;20033;-64
2021/04/17 02:02:24;;;;;;;4.55;1.85;;;;;;;11.16;33.19;100297.16;5058644;28;20033;-66
2021/04/17 02:04:49;;;;;;;3.00;1.50;;;;;;;11.43;33.05;100324.69;5065784;28;20035;-66
2021/04/17 02:07:15;;;;;;;3.13;2.20;;;;;;;10.98;33.38;100263.75;5062507;28;20086;-66
2021/04/17 02:09:40;;;;;;;5.25;2.30;;;;;;;11.03;33.47;100289.19;5058563;28;20040;-67
2021/04/17 02:12:06;;;;;;;6.93;2.63;;;;;;;11.00;33.88;100302.00;5068103;28;20032;-65
2021/04/17 02:14:32;;;;;;;4.60;2.40;;;;;;;11.13;33.70;100320.69;5057010;28;20366;-66
2021/04/17 02:17:16;;;;;;;6.82;2.40;;;;;;;11.19;33.17;100322.88;5065441;28;20125;-65
2021/04/17 02:20:04;;;;;;;8.15;2.70;;;;;;;11.15;33.51;100316.06;5070118;28;20132;-67
2021/04/17 02:22:31;;;;;;;3.22;2.60;;;;;;;11.32;32.94;100307.56;5040495;28;20424;-66
2021/04/17 02:24:57;;;;;;;7.22;2.58;;;;;;;11.19;32.73;100321.03;5064471;28;20033;-65
2021/04/17 02:27:23;;;;;;;4.38;2.75;;;;;;;10.71;33.15;100270.16;5063430;28;20089;-66
2021/04/17 02:29:53;;;;;;;4.40;2.70;;;;;;;10.07;32.91;100172.22;5057626;28;20087;-66
2021/04/17 02:32:19;;;;;;;7.07;3.33;;;;;;;10.85;33.08;100296.78;5068824;28;20048;-66
2021/04/17 02:34:45;;;;;;;2.92;1.73;;;;;;;11.06;32.35;100283.59;5058256;28;20033;-66
2021/04/17 02:37:12;;;;;;;5.38;2.65;;;;;;;11.03;32.50;100320.50;5060251;28;20041;-67
2021/04/17 02:39:38;;;;;;;4.07;2.47;;;;;;;10.89;33.02;100310.81;5064607;28;20052;-66
2021/04/17 02:42:04;;;;;;;6.53;2.63;;;;;;;11.06;32.48;100323.78;5054563;28;20132;-63
2021/04/17 02:44:29;;;;;;;6.10;2.45;;;;;;;11.00;32.35;100332.28;5068056;28;20124;-66
2021/04/17 02:46:55;;;;;;;2.67;2.17;;;;;;;10.98;32.58;100318.16;5059201;28;20033;-66
2021/04/17 02:49:20;;;;;;;4.40;2.00;;;;;;;10.95;32.86;100321.06;5060162;28;20111;-66
2021/04/17 02:51:46;;;;;;;6.07;2.30;;;;;;;10.59;32.60;100264.75;5065977;28;20036;-65
2021/04/17 02:54:11;;;;;;;3.83;2.13;;;;;;;11.03;32.06;100333.91;5055358;28;20520;-66
2021/04/17 02:56:37;;;;;;;4.35;2.17;;;;;;;10.38;32.30;100227.03;5065324;28;20037;-65
2021/04/17 02:59:03;;;;;;;3.15;2.10;;;;;;;10.83;32.00;100314.81;5060733;28;20419;-64
2021/04/17 03:01:29;;;;;;;4.88;2.08;;;;;;;10.98;32.18;100353.00;5059055;28;20508;-67
2021/04/17 03:03:54;;;;;;;4.63;2.15;;;;;;;11.06;32.05;100363.16;5066959;28;20040;-64
2021/04/17 03:06:20;;;;;;;3.10;2.42;;;;;;;10.98;31.75;100354.84;5054658;28;20033;-65
2021/04/17 03:08:46;;;;;;;6.60;2.53;;;;;;;11.05;31.70;100356.91;5065285;28;20538;-64
2021/04/17 03:11:11;;;;;;;2.60;2.20;;;;;;;10.93;31.77;100355.16;5055662;28;20028;-66
2021/04/17 03:13:37;;;;;;;5.70;2.10;;;;;;;11.09;31.54;100346.84;5064187;28;20062;-64
2021/04/17 03:16:02;;;;;;;5.30;2.10;;;;;;;11.02;31.70;100362.50;5055144;28;20083;-65
2021/04/17 03:18:28;;;;;;;5.95;1.85;;;;;;;11.18;31.29;100367.56;5064822;28;20090;-66
2021/04/17 03:20:53;;;;;;;2.67;2.30;;;;;;;10.68;31.45;100303.41;5071093;28;20296;-65
2021/04/17 03:23:19;;;;;;;6.22;2.25;;;;;;;10.97;31.74;100355.78;5062251;28;20068;-66
2021/04/17 03:25:44;;;;;;;6.28;1.73;;;;;;;11.27;31.23;100366.03;5057041;28;20067;-69
2021/04/17 03:28:09;;;;;;;4.07;2.30;;;;;;;10.87;31.13;100329.69;5067713;28;20039;-65
2021/04/17 03:30:35;;;;;;;5.35;2.35;;;;;;;11.09;31.04;100338.78;5055915;28;20115;-65
2021/04/17 03:33:02;;;;;;;4.80;2.30;;;;;;;11.10;31.29;100369.16;5066703;28;20036;-66
2021/04/17 03:35:29;;;;;;;4.97;2.10;;;;;;;11.25;30.75;100364.47;5058800;28;20158;-66
2021/04/17 03:37:55;;;;;;;4.00;1.98;;;;;;;11.08;31.25;100334.41;5066265;28;20041;-65
2021/04/17 03:40:21;;;;;;;4.78;1.80;;;;;;;11.12;31.04;100340.41;5053326;28;20038;-67
2021/04/17 03:42:47;;;;;;;2.50;1.70;;;;;;;11.19;30.82;100320.22;5061729;28;20029;-64
2021/04/17 03:45:13;;;;;;;4.78;1.77;;;;;;;11.26;30.89;100299.16;5064088;28;20040;-65
2021/04/17 03:47:39;;;;;;;5.78;1.98;;;;;;;11.38;30.78;100337.59;5070837;28;20043;-65
2021/04/17 03:50:07;;;;;;;3.10;1.45;;;;;;;11.45;30.57;100302.16;5053298;28;20041;-64
2021/04/17 03:52:34;;;;;;;6.63;2.00;;;;;;;11.66;30.17;100319.38;5069868;28;20106;-65
2021/04/17 03:55:00;;;;;;;5.32;1.80;;;;;;;11.57;30.70;100328.97;5057616;28;20032;-67
2021/04/17 03:57:26;;;;;;;7.70;1.63;;;;;;;11.67;30.44;100329.13;5058235;28;20040;-64
2021/04/17 03:59:52;;;;;;;4.32;1.80;;;;;;;11.72;30.29;100330.50;5065792;28;20123;-64
2021/04/17 04:02:17;;;;;;;5.00;1.75;;;;;;;11.90;29.72;100314.78;5053450;28;20503;-66
2021/04/17 04:04:43;;;;;;;3.67;1.75;;;;;;;11.36;29.68;100254.59;5061520;28;20052;-65
2021/04/17 04:07:08;;;;;;;3.53;1.80;;;;;;;11.89;29.62;100342.59;5070020;28;20098;-63
2021/04/17 04:09:34;;;;;;;4.93;1.73;;;;;;;11.98;29.68;100348.19;5057070;28;20040;-62
2021/04/17 04:12:00;;;;;;;4.15;1.60;;;;;;;12.04;29.64;100343.25;5065960;28;20044;-66
2021/04/17 04:14:26;;;;;;;2.72;1.40;;;;;;;12.01;29.73;100299.69;5062119;28;20101;-64
2021/04/17 04:16:51;;;;;;;4.90;1.45;;;;;;;12.11;29.45;100335.56;5062001;28;20404;-62
2021/04/17 04:19:17;;;;;;;6.22;1.70;;;;;;;12.11;29.06;100351.66;5063141;28;20036;-67
2021/04/17 04:21:42;;;;;;;3.67;1.63;;;;;;;12.01;29.52;100374.81;5065120;28;20048;-66
2021/04/17 04:24:09;;;;;;;2.78;1.33;;;;;;;12.03;29.50;100367.50;5050967;28;20044;-67
2021/04/17 04:26:35;;;;;;;2.67;1.55;;;;;;;12.27;29.30;100396.06;5067467;28;20112;-62
2021/04/17 04:29:02;;;;;;;5.53;1.75;;;;;;;12.37;29.07;100370.22;5061702;28;20032;-65
2021/04/17 04:31:28;;;;;;;6.60;1.80;;;;;;;12.61;29.01;100359.31;5061567;28;20131;-66
2021/04/17 04:33:53;;;;;;;6.43;1.90;;;;;;;12.92;28.43;100377.47;5052992;28;20041;-66
2021/04/17 04:36:18;;;;;;;4.20;1.70;;;;;;;13.17;27.85;100381.72;5055829;28;20124;-65
2021/04/17 04:38:44;;;;;;;7.68;1.92;;;;;;;13.67;27.10;100377.63;5063696;28;20060;-65
2021/04/17 04:41:10;;;;;;;4.03;1.70;;;;;;;13.76;26.53;100384.88;5059002;28;20044;-66
2021/04/17 04:43:35;;;;;;;3.95;2.40;;;;;;;13.57;26.79;100358.72;5056559;28;20037;-64
2021/04/17 04:46:01;;;;;;;7.32;1.67;;;;;;;13.61;26.60;100376.28;5058125;28;20086;-67
2021/04/17 04:48:26;;;;;;;5.65;1.65;;;;;;;13.35;27.16;100373.94;5037032;28;20044;-64
2021/04/17 04:50:51;;;;;;;5.63;2.05;;;;;;;13.34;27.34;100391.06;5062675;28;20061;-64
2021/04/17 04:53:17;;;;;;;3.45;1.30;;;;;;;13.49;27.09;100355.78;5059903;28;20078;-67
2021/04/17 04:55:42;;;;;;;3.00;1.88;;;;;;;13.88;26.15;100374.06;5055439;28;20037;-66
2021/04/17 04:58:08;;;;;;;7.18;1.80;;;;;;;14.29;25.79;100380.38;5066249;28;20036;-65
2021/04/17 05:00:33;;;;;;;4.07;1.85;;;;;;;15.05;24.70;100378.22;5054306;28;20082;-67
2021/04/17 05:02:59;;;;;;;2.72;1.60;;;;;;;15.98;23.52;100361.59;5061901;28;20077;-66
2021/04/17 05:05:24;;;;;;;2.80;1.80;;;;;;;16.71;22.77;100354.63;5054328;28;20060;-66
2021/04/17 05:07:50;;;;;;;4.13;1.70;;;;;;;17.48;21.56;100369.66;5062829;28;20029;-65
2021/04/17 05:10:15;;;;;;;5.80;1.38;;;;;;;18.02;20.72;100366.88;5065802;28;20411;-65
2021/04/17 05:12:41;;;;;;;3.17;1.80;;;;;;;18.32;20.43;100380.06;5054667;28;20038;-66
2021/04/17 05:15:07;;;;;;;5.15;1.90;;;;;;;18.63;20.32;100357.88;5057590;28;20033;-65
2021/04/17 05:17:33;;;;;;;3.80;1.90;;;;;;;18.89;19.69;100359.66;5056262;28;20029;-66
2021/04/17 05:19:59;;;;;;;3.80;1.85;;;;;;;19.58;19.12;100374.88;5062544;28;20040;-67
2021/04/17 05:22:25;;;;;;;5.50;1.58;;;;;;;20.39;18.58;100353.19;5065842;28;20626;-62
2021/04/17 05:24:51;;;;;;;3.33;1.70;;;;;;;20.54;17.63;100344.31;5052677;28;20059;-66
2021/04/17 05:27:17;;;;;;;7.05;1.70;;;;;;;20.78;17.93;100357.78;5059566;28;20082;-66
2021/04/17 05:29:42;;;;;;;3.63;1.98;;;;;;;21.75;16.92;100303.84;5059041;28;20041;-67
2021/04/17 05:32:08;;;;;;;6.78;2.10;;;;;;;22.31;16.12;100367.16;5066076;28;20043;-65
2021/04/17 05:34:34;;;;;;;6.35;2.30;;;;;;;22.67;16.32;100366.44;5065035;28;20037;-67
2021/04/17 05:37:00;;;;;;;3.92;2.17;;;;;;;21.51;16.85;100370.28;5057151;28;20059;-66
2021/04/17 05:39:25;;;;;;;3.40;1.80;;;;;;;20.13;17.71;100377.91;5056957;28;20128;-68
2021/04/17 05:41:51;;;;;;;6.43;1.95;;;;;;;18.74;19.23;100376.53;5057474;28;20025;-63
2021/04/17 05:44:16;;;;;;;5.35;2.08;;;;;;;17.55;20.85;100368.00;5065436;28;20123;-62
2021/04/17 05:46:43;;;;;;;7.50;2.40;;;;;;;16.91;21.68;100308.56;5062430;28;20127;-62
2021/04/17 05:49:10;;;;;;;4.00;2.00;;;;;;;17.48;21.10;100362.38;5060001;28;20534;-63
2021/04/17 05:51:38;;;;;;;3.70;2.40;;;;;;;18.24;20.56;100350.22;5067744;28;20040;-64
2021/04/17 05:54:04;;;;;;;4.72;2.60;;;;;;;19.12;19.36;100331.91;5061874;28;20508;-67
2021/04/17 05:56:30;;;;;;;5.25;2.22;;;;;;;19.42;18.84;100332.28;5053718;28;20129;-69
2021/04/17 05:58:56;;;;;;;9.30;2.30;;;;;;;19.58;19.15;100331.41;5056590;28;20040;-68
2021/04/17 06:01:22;;;;;;;7.35;2.25;;;;;;;19.48;19.00;100342.44;5056431;28;20122;-67
2021/04/17 06:03:47;;;;;;;4.82;2.38;;;;;;;19.65;19.21;100346.88;5063654;28;20036;-65
2021/04/17 06:06:13;;;;;;;7.15;2.45;;;;;;;21.71;17.33;100337.94;5064624;28;20090;-69
2021/04/17 06:08:39;;;;;;;5.20;2.20;;;;;;;23.19;15.78;100339.06;5055406;28;20520;-71
2021/04/17 06:11:05;;;;;;;5.13;2.30;;;;;;;24.72;14.62;100334.09;5060083;28;20037;-65
2021/04/17 06:13:32;;;;;;;7.30;2.40;;;;;;;26.26;13.50;100289.47;5069153;28;20039;-69
2021/04/17 06:15:58;;;;;;;5.68;2.33;;;;;;;28.20;11.88;100327.66;5054791;28;20040;-71
2021/04/17 06:18:23;;;;;;;6.25;2.50;;;;;;;29.16;11.30;100317.13;5059408;28;20126;-67
2021/04/17 06:20:49;;;;;;;4.53;2.22;;;;;;;30.24;10.84;100338.25;5056770;28;20033;-68
2021/04/17 06:23:14;;;;;;;6.10;2.45;;;;;;;30.57;10.27;100331.22;5054985;28;20044;-70
2021/04/17 06:25:40;;;;;;;9.48;2.42;;;;;;;31.54;9.85;100340.78;5053567;28;20039;-65
2021/04/17 06:28:05;;;;;;;6.45;2.30;;;;;;;32.41;9.07;100332.94;5051847;28;20037;-66
2021/04/17 06:30:31;;;;;;;5.88;2.30;;;;;;;32.94;9.26;100335.25;5057318;28;20094;-70
2021/04/17 06:32:56;;;;;;;6.53;2.45;;;;;;;33.53;8.55;100336.38;5054553;28;20040;-70
2021/04/17 06:35:22;;;;;;;9.05;3.03;;;;;;;33.52;8.43;100345.81;5052788;28;20568;-66
2021/04/17 06:37:47;;;;;;;7.15;2.63;;;;;;;33.55;8.53;100342.50;5052903;28;20483;-69
2021/04/17 06:40:13;;;;;;;6.45;2.40;;;;;;;34.64;7.83;100334.81;5048554;28;20037;-64
2021/04/17 06:42:44;;;;;;;6.53;2.63;;;;;;;34.10;7.22;100338.69;5062247;28;20132;-66
2021/04/17 06:45:13;;;;;;;6.35;2.50;;;;;;;34.32;7.66;100324.66;5071668;28;20039;-68
2021/04/17 06:47:39;;;;;;;5.22;3.17;;;;;;;34.31;7.31;100345.22;5058220;28;20033;-68
2021/04/17 06:50:07;;;;;;;6.28;2.80;;;;;;;35.13;7.17;100330.78;5056707;28;20102;-66
2021/04/17 06:52:37;;;;;;;8.18;2.97;;;;;;;36.04;7.08;100334.94;5056104;28;20056;-65
2021/04/17 06:55:03;;;;;;;7.40;3.08;;;;;;;35.96;6.85;100327.94;5060159;28;20503;-69
2021/04/17 06:57:29;;;;;;;6.40;2.83;;;;;;;36.38;6.82;100330.63;5059192;28;20098;-68
2021/04/17 06:59:55;;;;;;;7.07;2.72;;;;;;;37.08;6.50;100317.72;5060277;28;20266;-70
2021/04/17 07:02:21;;;;;;;8.30;2.97;;;;;;;37.81;5.95;100315.16;5065649;28;20451;-68
2021/04/17 07:04:49;;;;;;;4.60;2.85;;;;;;;37.88;5.71;100327.66;5055930;28;20037;-64
2021/04/17 07:07:14;;;;;;;4.85;2.60;;;;;;;38.63;5.46;100321.75;5061261;28;20044;-64
2021/04/17 07:09:40;;;;;;;9.65;2.65;;;;;;;39.44;5.37;100317.19;5071102;28;20032;-62
2021/04/17 07:12:06;;;;;;;6.82;2.60;;;;;;;40.45;4.72;100322.28;5055551;28;20163;-67
2021/04/17 07:14:46;;;;;;;8.38;2.80;;;;;;;40.65;4.64;100320.19;5071779;28;20061;-67
2021/04/17 07:17:11;;;;;;;4.40;2.67;;;;;;;40.02;4.41;100295.38;5061905;28;20041;-63
2021/04/17 07:19:43;;;;;;;7.43;2.70;;;;;;;40.24;4.62;100314.28;5041784;28;20053;-67
2021/04/17 07:22:17;;;;;;;5.57;2.78;;;;;;;40.85;4.68;100325.31;5068653;28;20392;-66
2021/04/17 07:24:44;;;;;;;5.72;2.60;;;;;;;39.36;4.75;100298.28;5051346;28;20649;-66
2021/04/17 07:27:10;;;;;;;4.63;2.60;;;;;;;39.09;5.06;100316.63;5061068;28;20123;-67
2021/04/17 07:29:43;;;;;;;9.65;3.00;;;;;;;38.76;5.05;100286.59;5064346;28;20127;-66
2021/04/17 07:32:18;;;;;;;8.33;3.30;;;;;;;37.35;5.82;100329.22;5054647;28;20040;-67
2021/04/17 07:35:19;;;;;;;7.72;2.60;;;;;;;37.75;5.15;100315.22;5065180;28;20084;-67
2021/04/17 07:38:27;;;;;;;8.23;3.05;;;;;;;38.55;5.27;100328.84;5053081;28;20374;-66
2021/04/17 07:41:01;;;;;;;8.65;3.00;;;;;;;38.35;5.74;100327.16;5041047;28;20044;-67
2021/04/17 07:43:49;;;;;;;5.65;2.60;;;;;;;38.74;5.51;100325.25;5058938;28;20113;-64
2021/04/17 07:46:22;;;;;;;9.18;3.28;;;;;;;38.36;5.50;100327.97;5067033;28;20504;-67
2021/04/17 07:48:48;;;;;;;7.13;3.38;;;;;;;38.00;5.89;100313.31;5056775;28;20117;-66
2021/04/17 07:51:14;;;;;;;7.13;3.15;;;;;;;38.50;5.34;100325.28;5054242;28;20323;-70
2021/04/17 07:53:42;;;;;;;9.27;3.30;;;;;;;39.07;5.07;100308.53;5055214;28;20119;-65
2021/04/17 07:56:41;;;;;;;7.13;4.15;;;;;;;39.34;4.78;100324.63;5067242;28;20133;-65
2021/04/17 07:59:06;;;;;;;15.95;3.63;;;;;;;36.24;6.45;100324.84;5015331;28;20040;-63
2021/04/17 08:01:34;;;;;;;11.40;4.30;;;;;;;35.03;7.16;100337.16;5058467;28;20036;-65
2021/04/17 08:04:06;;;;;;;8.65;4.32;;;;;;;33.88;7.86;100320.22;5066785;28;20051;-67
2021/04/17 08:06:31;;;;;;;7.47;4.50;;;;;;;31.58;9.11;100317.03;5054590;28;20553;-67
2021/04/17 08:08:59;;;;;;;6.43;4.30;;;;;;;29.86;10.75;100334.88;5062459;28;20033;-67
2021/04/17 08:11:28;;;;;;;11.32;4.07;;;;;;;28.24;11.86;100325.31;5061392;28;20476;-67
2021/04/17 08:14:14;;;;;;;7.68;4.47;;;;;;;26.64;12.58;100268.59;5066089;28;20425;-67
2021/04/17 08:16:40;;;;;;;7.95;3.50;;;;;;;25.26;14.15;100329.59;5054867;28;20158;-69
2021/04/17 08:19:10;;;;;;;8.80;3.83;;;;;;;24.17;15.14;100321.19;5060486;28;20032;-66
2021/04/17 08:21:35;;;;;;;9.05;3.85;;;;;;;23.31;16.22;100323.03;5063373;28;20443;-61
2021/04/17 08:24:01;;;;;;;9.65;4.18;;;;;;;22.76;17.16;100337.13;5053563;28;20031;-65
2021/04/17 08:26:30;;;;;;;9.43;3.90;;;;;;;22.22;17.80;100320.03;5048067;28;20064;-66
2021/04/17 08:28:55;;;;;;;10.20;4.30;;;;;;;21.90;18.10;100322.94;5049058;28;20064;-65
2021/04/17 08:31:34;;;;;;;9.35;4.47;;;;;;;21.68;18.37;100311.06;5054544;28;20071;-67
2021/04/17 08:34:20;;;;;;;11.73;3.80;;;;;;;21.44;18.85;100317.53;5066206;28;20032;-65
2021/04/17 08:36:46;;;;;;;10.57;4.20;;;;;;;21.33;18.86;100321.53;5051848;28;20032;-65
2021/04/17 08:39:34;;;;;;;10.98;4.40;;;;;;;21.25;19.17;100275.34;5059843;28;20523;-66
2021/04/17 08:42:01;;;;;;;8.95;4.22;;;;;;;20.69;19.48;100299.00;5058785;28;20400;-67
2021/04/17 08:44:35;;;;;;;8.25;4.30;;;;;;;20.21;20.18;100245.50;5052647;28;20043;-66
2021/04/17 08:47:02;;;;;;;8.07;4.45;;;;;;;20.11;20.75;100301.97;5060322;28;20029;-66
2021/04/17 08:49:40;;;;;;;10.05;4.82;;;;;;;20.10;21.06;100303.00;5060672;28;20052;-68
2021/04/17 08:52:08;;;;;;;5.80;4.32;;;;;;;20.07;20.89;100303.34;5052802;28;20041;-64
2021/04/17 08:54:35;;;;;;;13.02;4.40;;;;;;;19.80;21.28;100275.53;5065030;28;20102;-66
2021/04/17 08:57:10;;;;;;;7.97;4.53;;;;;;;19.65;21.54;100289.81;5061406;28;20514;-66
2021/04/17 08:59:37;;;;;;;12.57;4.60;;;;;;;19.40;21.48;100225.69;5062716;28;20124;-61
2021/04/17 09:02:17;;;;;;;8.27;5.05;;;;;;;20.00;21.43;100276.03;5052345;28;20423;-62
2021/04/17 09:05:09;;;;;;;10.93;5.28;;;;;;;20.05;21.11;100314.38;5063466;28;20107;-69
2021/04/17 09:07:38;;;;;;;13.65;5.32;;;;;;;20.07;20.96;100297.91;5049793;28;20061;-66
2021/04/17 09:10:22;;;;;;;8.82;5.20;;;;;;;20.23;20.86;100292.41;5066095;28;20052;-68
2021/04/17 09:13:07;;;;;;;10.50;4.88;;;;;;;20.07;20.89;100262.59;5055131;28;20103;-64
2021/04/17 09:15:52;;;;;;;13.68;5.63;;;;;;;20.29;20.77;100277.25;5057062;28;20036;-66
2021/04/17 09:18:33;;;;;;;11.65;5.90;;;;;;;20.05;21.08;100298.06;5065429;28;20037;-66
2021/04/17 09:21:21;;;;;;;14.52;5.63;;;;;;;19.55;21.53;100286.44;5057107;28;20040;-67
2021/04/17 09:23:53;;;;;;;13.43;5.97;;;;;;;19.32;22.16;100297.13;5054466;28;20037;-67
2021/04/17 09:26:31;;;;;;;12.20;5.93;;;;;;;19.55;21.86;100281.03;5063950;28;20036;-65
2021/04/17 09:29:16;;;;;;;10.63;5.72;;;;;;;19.34;22.02;100286.97;5058777;28;20036;-68
2021/04/17 09:31:42;;;;;;;14.35;6.40;;;;;;;19.26;22.15;100298.66;5054626;28;20040;-69
2021/04/17 09:34:12;;;;;;;11.38;5.68;;;;;;;19.45;21.95;100311.06;5065334;28;20110;-67
2021/04/17 09:36:38;;;;;;;13.43;5.78;;;;;;;19.39;21.94;100303.56;5054048;28;20036;-66
2021/04/17 09:39:31;;;;;;;12.85;5.88;;;;;;;19.36;21.88;100288.50;5060644;28;20045;-67
2021/04/17 09:42:00;;;;;;;13.05;6.78;;;;;;;19.13;22.27;100303.75;5064658;28;20035;-66
2021/04/17 09:44:41;;;;;;;9.65;6.25;;;;;;;19.20;22.31;100304.78;5051928;28;20325;-66
2021/04/17 09:47:09;;;;;;;10.60;6.10;;;;;;;18.89;22.57;100294.53;5059368;28;21184;-64
2021/04/17 09:49:40;;;;;;;11.02;5.07;;;;;;;18.50;22.60;100217.34;5046572;28;20048;-65
2021/04/17 09:52:07;;;;;;;8.80;5.80;;;;;;;18.94;22.71;100314.72;5056413;28;20047;-66
2021/04/17 09:54:33;;;;;;;10.50;5.43;;;;;;;18.85;22.69;100277.72;5061779;28;20039;-65
2021/04/17 09:57:05;;;;;;;11.65;6.22;;;;;;;18.94;22.92;100306.59;5060177;28;20043;-65
2021/04/17 09:59:30;;;;;;;7.75;5.75;;;;;;;18.83;22.89;100279.78;5060166;28;20133;-67
2021/04/17 10:02:02;;;;;;;8.55;5.55;;;;;;;18.90;23.08;100294.34;5060521;28;20075;-65
2021/04/17 10:04:57;;;;;;;9.80;5.13;;;;;;;19.33;22.40;100288.84;5042238;28;20036;-65
2021/04/17 10:07:22;;;;;;;10.90;4.97;;;;;;;19.15;22.82;100275.41;5064497;28;20029;-67
2021/04/17 10:10:05;;;;;;;13.15;5.78;;;;;;;19.28;22.49;100280.34;5057182;28;20043;-67
2021/04/17 10:12:31;;;;;;;10.20;5.00;;;;;;;19.31;22.58;100315.31;5056616;28;20033;-69
2021/04/17 10:15:15;;;;;;;11.23;5.20;;;;;;;19.24;22.56;100281.69;5064636;28;20405;-67
2021/04/17 10:17:41;;;;;;;9.85;5.93;;;;;;;19.08;22.80;100296.09;5066180;28;20037;-68
2021/04/17 10:20:08;;;;;;;7.30;4.88;;;;;;;18.58;22.90;100201.06;5054835;28;20040;-67
2021/04/17 10:22:33;;;;;;;9.50;5.10;;;;;;;19.10;22.78;100266.09;5056656;28;20051;-68
2021/04/17 10:24:59;;;;;;;6.80;4.53;;;;;;;19.12;22.95;100269.50;5066826;28;20033;-66
2021/04/17 10:27:25;;;;;;;8.98;4.53;;;;;;;19.08;23.02;100264.41;5051821;28;20037;-66
2021/04/17 10:29:52;;;;;;;9.60;4.30;;;;;;;19.27;22.79;100256.91;5065679;28;20039;-67
2021/04/17 10:32:24;;;;;;;8.55;4.30;;;;;;;19.56;22.65;100282.72;5054919;28;20128;-65
2021/04/17 10:35:05;;;;;;;7.00;4.47;;;;;;;19.67;22.30;100272.50;5066029;28;20036;-67
2021/04/17 10:37:45;;;;;;;8.40;4.30;;;;;;;19.54;22.56;100267.59;5059425;28;20033;-64
2021/04/17 10:40:16;;;;;;;10.45;4.30;;;;;;;19.70;22.38;100267.59;5066499;28;20032;-65
2021/04/17 10:42:47;;;;;;;8.20;4.22;;;;;;;19.54;22.69;100263.03;5057584;28;20032;-66
2021/04/17 10:45:37;;;;;;;10.45;5.13;;;;;;;19.63;22.13;100272.84;5061804;28;20500;-65
2021/04/17 10:48:04;;;;;;;6.70;4.13;;;;;;;19.55;22.29;100270.16;5052340;28;20094;-67
2021/04/17 10:50:36;;;;;;;7.97;4.80;;;;;;;19.38;22.77;100261.16;5067256;28;20087;-65
2021/04/17 10:53:05;;;;;;;7.63;3.50;;;;;;;19.68;22.36;100268.75;5059681;28;20036;-67
2021/04/17 10:55:37;;;;;;;13.25;4.50;;;;;;;19.33;22.79;100256.25;5059422;28;20036;-64
2021/04/17 10:58:03;;;;;;;8.82;4.25;;;;;;;19.29;22.77;100251.34;5068311;28;20166;-66
2021/04/17 11:00:35;;;;;;;7.35;4.38;;;;;;;19.41;22.67;100251.84;5054899;28;20025;-65
2021/04/17 11:03:03;;;;;;;10.80;4.30;;;;;;;19.45;22.57;100247.75;5063147;28;20040;-64
2021/04/17 11:05:31;;;;;;;11.02;4.45;;;;;;;19.41;22.88;100249.13;5063304;28;20115;-67
2021/04/17 11:07:58;;;;;;;10.75;4.20;;;;;;;19.54;22.78;100257.59;5055086;28;20033;-65
2021/04/17 11:10:36;;;;;;;8.27;4.70;;;;;;;19.66;22.58;100217.34;5067726;28;20037;-65
2021/04/17 11:13:04;;;;;;;11.20;4.63;;;;;;;19.68;22.43;100241.59;5059539;28;20086;-65
2021/04/17 11:15:30;;;;;;;11.20;4.55;;;;;;;19.44;22.73;100240.63;5057730;28;20515;-66
2021/04/17 11:18:18;;;;;;;11.10;5.25;;;;;;;19.50;22.88;100237.22;5064807;28;20106;-67
2021/04/17 11:20:52;;;;;;;9.07;4.88;;;;;;;19.60;22.82;100231.59;5042850;28;20040;-68
2021/04/17 11:23:42;;;;;;;9.63;4.85;;;;;;;19.80;22.69;100232.06;5060520;28;20032;-66
2021/04/17 11:26:09;;;;;;;18.02;5.20;;;;;;;19.82;22.85;100212.88;5061141;28;20447;-63
2021/04/17 11:28:35;;;;;;;12.48;5.20;;;;;;;20.03;22.64;100218.59;5051682;28;20033;-65
2021/04/17 11:31:01;;;;;;;11.60;5.35;;;;;;;19.99;22.33;100214.53;5045638;28;20036;-65
2021/04/17 11:33:27;;;;;;;9.63;5.43;;;;;;;20.07;22.45;100209.06;5057206;28;20036;-65